Flight Track Log - Related Links

Times and Time Zones

All times are in EDT time to prevent confusion due to time zone crossing. See the CPT8773 flight status page for this flight to view local times or setup timezone preferences in your user account.

Time Position Orientation Groundspeed Altitude Reporting Facility
EDT Latitude Longitude Course Direction KTS MPH feet Rate Location/Type
Fri 09:40:08 AM 43.0122 -106.4647 346° North 143 165 6,800  Level Salt Lake Center
Fri 09:41:09 AM 43.0508 -106.4686 356° North 144 166 7,400 595 Climbing Salt Lake Center
Fri 09:42:09 AM 43.0936 -106.4747 354° North 142 163 8,000 537 Climbing Salt Lake Center
Fri 09:43:00 AM 43.0370 -106.6610 307° West  Level Estimated
Fri 09:43:12 AM 43.1281 -106.4794 354° North 137 158 8,500  Level Salt Lake Center
Fri 09:44:00 AM 43.0745 -106.6736 346° North  Level FlightAware Approximate
Fri 09:44:12 AM 43.1628 -106.4847 354° North 134 154 9,000  Level Salt Lake Center
Fri 09:45:00 AM 43.1120 -106.6862 346° North  Level FlightAware Approximate
Fri 09:45:15 AM 43.2036 -106.4908 354° North 132 152 9,600  Level Salt Lake Center
Fri 09:46:14 AM 43.2267 -106.5264 312° West 132 152 10,100 504 Climbing Salt Lake Center
Fri 09:47:26 AM 43.2458 -106.5764 298° West 120 138 10,700 451 Climbing Denver Center
Fri 09:48:27 AM 43.2672 -106.6139 308° West 128 147 11,100 432 Climbing Denver Center
Fri 09:49:17 AM 43.2817 -106.6475 301° West 128 147 11,500 474 Climbing Salt Lake Center
Fri 09:50:21 AM 43.3064 -106.6897 309° West 127 146 12,000 240 Climbing Salt Lake Center
Fri 09:51:22 AM 43.3267 -106.7317 304° West 133 153 12,000  Level Salt Lake Center
Fri 09:52:24 AM 43.3544 -106.7778 310° West 139 160 12,000  Level Salt Lake Center
Fri 09:53:24 AM 43.3767 -106.8206 306° West 143 165 12,000  Level Salt Lake Center
Fri 09:54:26 AM 43.3972 -106.8642 303° West 143 165 12,000  Level Salt Lake Center
Fri 09:55:27 AM 43.4231 -106.9142 305° West 143 165 12,000  Level Salt Lake Center
Fri 09:56:27 AM 43.4478 -106.9600 307° West 143 165 12,000  Level Salt Lake Center
Fri 09:57:28 AM 43.4717 -107.0042 307° West 143 165 12,000  Level Salt Lake Center
Fri 09:58:29 AM 43.4956 -107.0486 307° West 144 166 12,000  Level Salt Lake Center
Fri 09:59:31 AM 43.5192 -107.0958 305° West 149 171 12,000  Level Salt Lake Center
Fri 10:00:32 AM 43.5417 -107.1403 305° West 144 166 12,000  Level Salt Lake Center
Fri 10:01:34 AM 43.5661 -107.1836 308° West 143 165 12,000  Level Salt Lake Center
Fri 10:02:35 AM 43.5894 -107.2289 305° West 145 167 12,000  Level Salt Lake Center
Fri 10:03:36 AM 43.6119 -107.2758 304° West 147 169 12,000  Level Salt Lake Center
Fri 10:04:38 AM 43.6358 -107.3194 307° West 144 166 12,000  Level Salt Lake Center
Fri 10:05:40 AM 43.6631 -107.3733 305° West 142 163 12,000  Level Salt Lake Center
Fri 10:06:41 AM 43.6861 -107.4208 304° West 148 170 12,000  Level Salt Lake Center
Fri 10:07:42 AM 43.7092 -107.4642 306° West 144 166 12,000  Level Salt Lake Center
Fri 10:08:44 AM 43.7339 -107.5067 309° West 142 163 12,000  Level Salt Lake Center
Fri 10:09:45 AM 43.7569 -107.5519 305° West 143 165 12,000  Level Salt Lake Center
Fri 10:10:47 AM 43.7814 -107.5994 305° West 146 168 12,000  Level Salt Lake Center
Fri 10:11:48 AM 43.8047 -107.6469 304° West 148 170 12,000  Level Salt Lake Center
Fri 10:12:50 AM 43.8283 -107.6936 305° West 148 170 12,000  Level Salt Lake Center
Fri 10:13:51 AM 43.8544 -107.7500 303° West 147 169 12,000 -146 Level Salt Lake Center
Fri 10:14:53 AM 43.8789 -107.7944 307° West 146 168 11,700 -341 Descending Salt Lake Center
Fri 10:15:54 AM 43.9025 -107.8386 307° West 145 167 11,300 -439 Descending Salt Lake Center
Fri 10:16:56 AM 43.9261 -107.8831 306° West 144 166 10,800 -439 Descending Salt Lake Center
Fri 10:17:57 AM 43.9506 -107.9275 307° West 144 166 10,400 -390 Descending Salt Lake Center
Fri 10:18:59 AM 43.9750 -107.9731 307° West 145 167 10,000 -194 Descending Salt Lake Center
Fri 10:20:01 AM 43.9994 -108.0203 306° West 147 169 10,000  Level Salt Lake Center
Fri 10:21:02 AM 44.0261 -108.0681 308° West 151 174 10,000  Level Salt Lake Center
Fri 10:22:04 AM 44.0508 -108.1172 305° West 153 176 10,000  Level Salt Lake Center
Fri 10:23:05 AM 44.0819 -108.1747 307° West 155 178 10,000  Level Salt Lake Center
Fri 10:24:07 AM 44.1075 -108.2219 307° West 154 177 10,000  Level Salt Lake Center
Fri 10:25:08 AM 44.1325 -108.2692 306° West 153 176 10,000  Level Salt Lake Center
Fri 10:26:10 AM 44.1572 -108.3150 307° West 151 174 10,000  Level Salt Lake Center
Fri 10:27:12 AM 44.1822 -108.3625 306° West 151 174 10,000  Level Salt Lake Center
Fri 10:28:13 AM 44.2067 -108.4092 306° West 150 173 10,000  Level Salt Lake Center
Fri 10:29:15 AM 44.2314 -108.4558 306° West 150 173 10,000  Level Salt Lake Center
Fri 10:30:17 AM 44.2564 -108.5022 307° West 150 173 10,000  Level Salt Lake Center
Fri 10:31:18 AM 44.2856 -108.5572 307° West 149 171 10,000  Level Salt Lake Center
Fri 10:32:20 AM 44.3103 -108.6036 307° West 148 170 10,000  Level Salt Lake Center
Fri 10:33:22 AM 44.3344 -108.6500 306° West 148 170 10,000  Level Salt Lake Center

Login

Don't have an account? Register now (free) for customized features, flight alerts, and more!